sensor_id;sensor_type;location;lat;lon;timestamp;temperature;humidity
21770;DHT22;11046;49.558;8.674;2023-04-25T00:02:45;8.70;97.40
21770;DHT22;11046;49.558;8.674;2023-04-25T00:05:46;8.70;97.40
21770;DHT22;11046;49.558;8.674;2023-04-25T00:08:48;8.60;97.50
21770;DHT22;11046;49.558;8.674;2023-04-25T00:11:49;8.60;97.60
21770;DHT22;11046;49.558;8.674;2023-04-25T00:14:49;8.70;97.50
21770;DHT22;11046;49.558;8.674;2023-04-25T00:17:50;8.60;97.50
21770;DHT22;11046;49.558;8.674;2023-04-25T00:20:53;8.70;97.60
21770;DHT22;11046;49.558;8.674;2023-04-25T00:23:54;8.60;97.60
21770;DHT22;11046;49.558;8.674;2023-04-25T00:26:55;8.70;97.70
21770;DHT22;11046;49.558;8.674;2023-04-25T00:29:55;8.60;97.70
21770;DHT22;11046;49.558;8.674;2023-04-25T00:32:56;8.60;97.80
21770;DHT22;11046;49.558;8.674;2023-04-25T00:35:56;8.60;97.80
21770;DHT22;11046;49.558;8.674;2023-04-25T00:38:57;8.60;97.90
21770;DHT22;11046;49.558;8.674;2023-04-25T00:41:58;8.60;98.00
21770;DHT22;11046;49.558;8.674;2023-04-25T00:44:59;8.60;98.10
21770;DHT22;11046;49.558;8.674;2023-04-25T00:48:01;8.50;98.50
21770;DHT22;11046;49.558;8.674;2023-04-25T00:51:02;8.60;98.20
21770;DHT22;11046;49.558;8.674;2023-04-25T00:54:03;8.70;98.20
21770;DHT22;11046;49.558;8.674;2023-04-25T00:57:04;8.70;98.20
21770;DHT22;11046;49.558;8.674;2023-04-25T01:00:06;8.70;98.20
21770;DHT22;11046;49.558;8.674;2023-04-25T01:03:07;8.70;98.30
21770;DHT22;11046;49.558;8.674;2023-04-25T01:06:09;8.80;98.30
21770;DHT22;11046;49.558;8.674;2023-04-25T01:09:10;8.80;98.30
21770;DHT22;11046;49.558;8.674;2023-04-25T01:12:11;8.80;98.30
21770;DHT22;11046;49.558;8.674;2023-04-25T01:15:11;8.70;98.30
21770;DHT22;11046;49.558;8.674;2023-04-25T01:18:12;8.70;98.40
21770;DHT22;11046;49.558;8.674;2023-04-25T01:21:13;8.60;98.60
21770;DHT22;11046;49.558;8.674;2023-04-25T01:24:15;8.60;98.60
21770;DHT22;11046;49.558;8.674;2023-04-25T01:27:16;8.60;98.70
21770;DHT22;11046;49.558;8.674;2023-04-25T01:30:17;8.60;98.70
21770;DHT22;11046;49.558;8.674;2023-04-25T01:33:19;8.70;98.70
21770;DHT22;11046;49.558;8.674;2023-04-25T01:36:21;8.70;98.70
21770;DHT22;11046;49.558;8.674;2023-04-25T01:39:22;8.60;98.80
21770;DHT22;11046;49.558;8.674;2023-04-25T01:42:23;8.60;98.80
21770;DHT22;11046;49.558;8.674;2023-04-25T01:45:24;8.60;99.00
21770;DHT22;11046;49.558;8.674;2023-04-25T01:48:25;8.50;99.00
21770;DHT22;11046;49.558;8.674;2023-04-25T01:51:26;8.60;99.00
21770;DHT22;11046;49.558;8.674;2023-04-25T01:54:27;8.60;99.00
21770;DHT22;11046;49.558;8.674;2023-04-25T01:57:27;8.60;99.00
21770;DHT22;11046;49.558;8.674;2023-04-25T02:00:29;8.50;99.10
21770;DHT22;11046;49.558;8.674;2023-04-25T02:03:31;8.60;99.10
21770;DHT22;11046;49.558;8.674;2023-04-25T02:06:33;8.50;99.10
21770;DHT22;11046;49.558;8.674;2023-04-25T02:09:33;8.60;99.20
21770;DHT22;11046;49.558;8.674;2023-04-25T02:12:38;8.50;99.10
21770;DHT22;11046;49.558;8.674;2023-04-25T02:15:59;8.50;99.20
21770;DHT22;11046;49.558;8.674;2023-04-25T02:19:00;8.50;99.20
21770;DHT22;11046;49.558;8.674;2023-04-25T02:22:00;8.40;99.20
21770;DHT22;11046;49.558;8.674;2023-04-25T02:25:01;8.40;99.50
21770;DHT22;11046;49.558;8.674;2023-04-25T02:28:03;8.40;99.30
21770;DHT22;11046;49.558;8.674;2023-04-25T02:31:03;8.50;99.70
21770;DHT22;11046;49.558;8.674;2023-04-25T02:34:04;8.40;99.30
21770;DHT22;11046;49.558;8.674;2023-04-25T02:37:05;8.50;99.30
21770;DHT22;11046;49.558;8.674;2023-04-25T02:40:06;8.40;99.30
21770;DHT22;11046;49.558;8.674;2023-04-25T02:43:07;8.40;99.40
21770;DHT22;11046;49.558;8.674;2023-04-25T02:46:08;8.40;99.60
21770;DHT22;11046;49.558;8.674;2023-04-25T02:49:08;8.40;99.50
21770;DHT22;11046;49.558;8.674;2023-04-25T02:52:09;8.40;99.60
21770;DHT22;11046;49.558;8.674;2023-04-25T02:55:10;8.30;99.60
21770;DHT22;11046;49.558;8.674;2023-04-25T02:58:12;8.30;99.90
21770;DHT22;11046;49.558;8.674;2023-04-25T03:01:20;8.30;99.80
21770;DHT22;11046;49.558;8.674;2023-04-25T03:04:20;8.30;99.80
21770;DHT22;11046;49.558;8.674;2023-04-25T03:07:21;8.30;99.80
21770;DHT22;11046;49.558;8.674;2023-04-25T03:10:23;8.30;99.80
21770;DHT22;11046;49.558;8.674;2023-04-25T03:13:24;8.20;99.90
21770;DHT22;11046;49.558;8.674;2023-04-25T03:16:25;8.20;99.90
21770;DHT22;11046;49.558;8.674;2023-04-25T03:19:26;8.30;99.90
21770;DHT22;11046;49.558;8.674;2023-04-25T03:22:26;8.30;99.90
21770;DHT22;11046;49.558;8.674;2023-04-25T03:25:27;8.30;99.90
21770;DHT22;11046;49.558;8.674;2023-04-25T03:28:28;8.30;99.90
21770;DHT22;11046;49.558;8.674;2023-04-25T03:31:30;8.40;99.90
21770;DHT22;11046;49.558;8.674;2023-04-25T03:34:31;8.40;99.90
21770;DHT22;11046;49.558;8.674;2023-04-25T03:37:32;8.40;99.90
21770;DHT22;11046;49.558;8.674;2023-04-25T03:40:32;8.40;99.90
21770;DHT22;11046;49.558;8.674;2023-04-25T03:43:49;8.30;99.90
21770;DHT22;11046;49.558;8.674;2023-04-25T03:46:51;8.40;99.90
21770;DHT22;11046;49.558;8.674;2023-04-25T03:49:51;8.40;99.90
21770;DHT22;11046;49.558;8.674;2023-04-25T03:52:55;8.40;99.90
21770;DHT22;11046;49.558;8.674;2023-04-25T03:55:56;8.30;99.90
21770;DHT22;11046;49.558;8.674;2023-04-25T03:58:57;8.30;99.90
21770;DHT22;11046;49.558;8.674;2023-04-25T04:01:59;8.30;99.90
21770;DHT22;11046;49.558;8.674;2023-04-25T04:05:01;8.30;99.90
21770;DHT22;11046;49.558;8.674;2023-04-25T04:08:02;8.30;99.90
21770;DHT22;11046;49.558;8.674;2023-04-25T04:11:03;8.30;99.90
21770;DHT22;11046;49.558;8.674;2023-04-25T04:14:05;8.30;99.90
21770;DHT22;11046;49.558;8.674;2023-04-25T04:17:06;8.30;99.90
21770;DHT22;11046;49.558;8.674;2023-04-25T04:20:08;8.30;99.90
21770;DHT22;11046;49.558;8.674;2023-04-25T04:23:09;8.40;99.90
21770;DHT22;11046;49.558;8.674;2023-04-25T04:26:10;8.40;99.90
21770;DHT22;11046;49.558;8.674;2023-04-25T04:29:31;8.50;99.90
21770;DHT22;11046;49.558;8.674;2023-04-25T04:32:36;8.50;99.90
21770;DHT22;11046;49.558;8.674;2023-04-25T04:35:38;8.50;99.90
21770;DHT22;11046;49.558;8.674;2023-04-25T04:38:40;8.40;99.90
21770;DHT22;11046;49.558;8.674;2023-04-25T04:41:42;8.50;99.90
21770;DHT22;11046;49.558;8.674;2023-04-25T04:44:55;8.40;99.90
21770;DHT22;11046;49.558;8.674;2023-04-25T04:48:34;8.40;99.90
21770;DHT22;11046;49.558;8.674;2023-04-25T04:51:53;8.40;99.90
21770;DHT22;11046;49.558;8.674;2023-04-25T04:55:30;8.40;99.90
21770;DHT22;11046;49.558;8.674;2023-04-25T04:58:49;8.40;99.90
21770;DHT22;11046;49.558;8.674;2023-04-25T05:02:09;8.50;99.90
21770;DHT22;11046;49.558;8.674;2023-04-25T05:05:35;8.50;99.90
21770;DHT22;11046;49.558;8.674;2023-04-25T05:09:00;8.50;99.90
21770;DHT22;11046;49.558;8.674;2023-04-25T05:12:12;8.50;99.90
21770;DHT22;11046;49.558;8.674;2023-04-25T05:15:27;8.50;99.90
21770;DHT22;11046;49.558;8.674;2023-04-25T05:18:43;8.50;99.90
21770;DHT22;11046;49.558;8.674;2023-04-25T05:21:57;8.50;99.90
21770;DHT22;11046;49.558;8.674;2023-04-25T05:25:05;8.60;99.90
21770;DHT22;11046;49.558;8.674;2023-04-25T05:28:33;8.60;99.90
21770;DHT22;11046;49.558;8.674;2023-04-25T05:31:47;8.60;99.90
21770;DHT22;11046;49.558;8.674;2023-04-25T05:34:50;8.60;99.90
21770;DHT22;11046;49.558;8.674;2023-04-25T05:37:58;8.60;99.90
21770;DHT22;11046;49.558;8.674;2023-04-25T05:41:16;8.70;99.90
21770;DHT22;11046;49.558;8.674;2023-04-25T05:44:30;8.70;99.90
21770;DHT22;11046;49.558;8.674;2023-04-25T05:47:50;8.60;99.90
21770;DHT22;11046;49.558;8.674;2023-04-25T05:51:06;8.60;99.90
21770;DHT22;11046;49.558;8.674;2023-04-25T05:54:13;8.70;99.90
21770;DHT22;11046;49.558;8.674;2023-04-25T05:57:24;8.70;99.90
21770;DHT22;11046;49.558;8.674;2023-04-25T06:00:26;8.70;99.90
21770;DHT22;11046;49.558;8.674;2023-04-25T06:03:27;8.80;99.90
21770;DHT22;11046;49.558;8.674;2023-04-25T06:06:27;8.80;99.90
21770;DHT22;11046;49.558;8.674;2023-04-25T06:09:28;8.90;99.90
21770;DHT22;11046;49.558;8.674;2023-04-25T06:12:28;9.00;99.90
21770;DHT22;11046;49.558;8.674;2023-04-25T06:15:29;9.00;99.90
21770;DHT22;11046;49.558;8.674;2023-04-25T06:18:30;8.90;99.90
21770;DHT22;11046;49.558;8.674;2023-04-25T06:21:31;8.90;99.90
21770;DHT22;11046;49.558;8.674;2023-04-25T06:24:33;8.90;99.90
21770;DHT22;11046;49.558;8.674;2023-04-25T06:27:37;8.80;99.90
21770;DHT22;11046;49.558;8.674;2023-04-25T06:30:39;8.70;99.90
21770;DHT22;11046;49.558;8.674;2023-04-25T06:33:44;8.70;99.90
21770;DHT22;11046;49.558;8.674;2023-04-25T06:36:45;8.70;99.90
21770;DHT22;11046;49.558;8.674;2023-04-25T06:39:49;8.70;99.90
21770;DHT22;11046;49.558;8.674;2023-04-25T06:42:49;8.80;99.90
21770;DHT22;11046;49.558;8.674;2023-04-25T06:46:05;8.80;99.90
21770;DHT22;11046;49.558;8.674;2023-04-25T06:49:10;8.80;99.90
21770;DHT22;11046;49.558;8.674;2023-04-25T06:52:11;8.90;99.90
21770;DHT22;11046;49.558;8.674;2023-04-25T06:55:12;9.10;99.90
21770;DHT22;11046;49.558;8.674;2023-04-25T06:58:32;9.30;99.90
21770;DHT22;11046;49.558;8.674;2023-04-25T07:01:51;9.30;99.90
21770;DHT22;11046;49.558;8.674;2023-04-25T07:04:55;9.40;99.90
21770;DHT22;11046;49.558;8.674;2023-04-25T07:08:00;9.40;99.90
21770;DHT22;11046;49.558;8.674;2023-04-25T07:11:01;9.40;99.90
21770;DHT22;11046;49.558;8.674;2023-04-25T07:14:02;9.50;99.90
21770;DHT22;11046;49.558;8.674;2023-04-25T07:17:03;9.60;99.90
21770;DHT22;11046;49.558;8.674;2023-04-25T07:20:06;9.70;99.90
21770;DHT22;11046;49.558;8.674;2023-04-25T07:23:08;9.80;99.80
21770;DHT22;11046;49.558;8.674;2023-04-25T07:26:09;9.90;99.70
21770;DHT22;11046;49.558;8.674;2023-04-25T07:29:13;10.00;99.50
21770;DHT22;11046;49.558;8.674;2023-04-25T07:32:14;10.00;99.40
21770;DHT22;11046;49.558;8.674;2023-04-25T07:35:17;9.90;99.40
21770;DHT22;11046;49.558;8.674;2023-04-25T07:38:18;10.00;99.30
21770;DHT22;11046;49.558;8.674;2023-04-25T07:41:19;10.00;99.10
21770;DHT22;11046;49.558;8.674;2023-04-25T07:44:20;10.00;99.10
21770;DHT22;11046;49.558;8.674;2023-04-25T07:47:21;10.00;98.90
21770;DHT22;11046;49.558;8.674;2023-04-25T07:50:21;10.00;98.70
21770;DHT22;11046;49.558;8.674;2023-04-25T07:53:22;10.10;98.70
21770;DHT22;11046;49.558;8.674;2023-04-25T07:56:28;10.10;98.60
21770;DHT22;11046;49.558;8.674;2023-04-25T07:59:29;10.30;98.60
21770;DHT22;11046;49.558;8.674;2023-04-25T08:02:30;10.40;98.50
21770;DHT22;11046;49.558;8.674;2023-04-25T08:05:31;10.40;98.40
21770;DHT22;11046;49.558;8.674;2023-04-25T08:08:37;10.60;98.50
21770;DHT22;11046;49.558;8.674;2023-04-25T08:11:39;11.10;98.40
21770;DHT22;11046;49.558;8.674;2023-04-25T08:14:42;11.30;97.70
21770;DHT22;11046;49.558;8.674;2023-04-25T08:17:43;11.50;97.40
21770;DHT22;11046;49.558;8.674;2023-04-25T08:20:44;11.70;97.10
21770;DHT22;11046;49.558;8.674;2023-04-25T08:23:47;11.80;96.90
21770;DHT22;11046;49.558;8.674;2023-04-25T08:26:56;11.90;96.60
21770;DHT22;11046;49.558;8.674;2023-04-25T08:29:59;11.80;96.30
21770;DHT22;11046;49.558;8.674;2023-04-25T08:32:59;11.60;96.10
21770;DHT22;11046;49.558;8.674;2023-04-25T08:36:32;11.60;96.10
21770;DHT22;11046;49.558;8.674;2023-04-25T08:39:33;11.70;96.10
21770;DHT22;11046;49.558;8.674;2023-04-25T08:42:53;11.80;95.80
21770;DHT22;11046;49.558;8.674;2023-04-25T08:45:58;11.80;95.70
21770;DHT22;11046;49.558;8.674;2023-04-25T08:49:09;11.90;95.20
21770;DHT22;11046;49.558;8.674;2023-04-25T08:52:10;11.90;95.00
21770;DHT22;11046;49.558;8.674;2023-04-25T08:55:13;11.90;95.00
21770;DHT22;11046;49.558;8.674;2023-04-25T08:58:15;12.10;94.90
21770;DHT22;11046;49.558;8.674;2023-04-25T09:01:16;12.40;94.70
21770;DHT22;11046;49.558;8.674;2023-04-25T09:04:23;12.30;94.40
21770;DHT22;11046;49.558;8.674;2023-04-25T09:07:24;12.40;94.10
21770;DHT22;11046;49.558;8.674;2023-04-25T09:10:26;12.20;94.00
21770;DHT22;11046;49.558;8.674;2023-04-25T09:13:30;12.10;93.90
21770;DHT22;11046;49.558;8.674;2023-04-25T09:20:19;12.10;93.60
21770;DHT22;11046;49.558;8.674;2023-04-25T09:23:21;11.90;93.70
21770;DHT22;11046;49.558;8.674;2023-04-25T09:26:22;11.80;93.60
21770;DHT22;11046;49.558;8.674;2023-04-25T09:29:35;11.80;93.70
21770;DHT22;11046;49.558;8.674;2023-04-25T09:32:37;11.90;93.50
21770;DHT22;11046;49.558;8.674;2023-04-25T09:35:44;12.10;93.50
21770;DHT22;11046;49.558;8.674;2023-04-25T09:39:13;12.10;93.10
21770;DHT22;11046;49.558;8.674;2023-04-25T09:42:26;12.20;92.90
21770;DHT22;11046;49.558;8.674;2023-04-25T09:45:29;12.20;92.80
21770;DHT22;11046;49.558;8.674;2023-04-25T09:48:32;12.20;92.60
21770;DHT22;11046;49.558;8.674;2023-04-25T09:51:37;12.40;92.50
21770;DHT22;11046;49.558;8.674;2023-04-25T09:54:40;12.60;92.00
21770;DHT22;11046;49.558;8.674;2023-04-25T09:57:45;12.80;92.00
21770;DHT22;11046;49.558;8.674;2023-04-25T10:00:49;12.90;91.70
21770;DHT22;11046;49.558;8.674;2023-04-25T10:04:03;13.10;91.70
21770;DHT22;11046;49.558;8.674;2023-04-25T10:07:30;13.30;91.30
21770;DHT22;11046;49.558;8.674;2023-04-25T10:10:32;13.70;90.80
21770;DHT22;11046;49.558;8.674;2023-04-25T10:13:36;14.00;90.70
21770;DHT22;11046;49.558;8.674;2023-04-25T10:16:37;14.30;90.30
21770;DHT22;11046;49.558;8.674;2023-04-25T10:19:39;14.70;90.20
21770;DHT22;11046;49.558;8.674;2023-04-25T10:22:44;15.20;89.90
21770;DHT22;11046;49.558;8.674;2023-04-25T10:25:45;15.60;88.70
21770;DHT22;11046;49.558;8.674;2023-04-25T10:29:01;15.70;87.60
21770;DHT22;11046;49.558;8.674;2023-04-25T10:32:02;15.70;87.10
21770;DHT22;11046;49.558;8.674;2023-04-25T10:35:14;15.60;86.70
21770;DHT22;11046;49.558;8.674;2023-04-25T10:38:16;15.10;86.40
21770;DHT22;11046;49.558;8.674;2023-04-25T10:41:21;14.60;87.50
21770;DHT22;11046;49.558;8.674;2023-04-25T10:44:26;14.30;87.90
21770;DHT22;11046;49.558;8.674;2023-04-25T10:47:45;14.20;88.60
21770;DHT22;11046;49.558;8.674;2023-04-25T10:50:45;14.10;88.70
21770;DHT22;11046;49.558;8.674;2023-04-25T10:53:47;14.10;89.20
21770;DHT22;11046;49.558;8.674;2023-04-25T10:56:58;14.10;88.40
21770;DHT22;11046;49.558;8.674;2023-04-25T11:00:08;14.30;87.60
21770;DHT22;11046;49.558;8.674;2023-04-25T11:03:16;14.30;86.90
21770;DHT22;11046;49.558;8.674;2023-04-25T11:06:22;14.20;86.10
21770;DHT22;11046;49.558;8.674;2023-04-25T11:09:24;13.80;84.90
21770;DHT22;11046;49.558;8.674;2023-04-25T11:12:25;13.50;85.50
21770;DHT22;11046;49.558;8.674;2023-04-25T11:15:26;13.30;85.90
21770;DHT22;11046;49.558;8.674;2023-04-25T11:18:27;13.10;85.90
21770;DHT22;11046;49.558;8.674;2023-04-25T11:21:27;13.00;85.70
21770;DHT22;11046;49.558;8.674;2023-04-25T11:24:34;12.90;85.20
21770;DHT22;11046;49.558;8.674;2023-04-25T11:27:59;12.80;85.40
21770;DHT22;11046;49.558;8.674;2023-04-25T11:30:58;12.80;85.30
21770;DHT22;11046;49.558;8.674;2023-04-25T11:33:59;12.80;85.40
21770;DHT22;11046;49.558;8.674;2023-04-25T11:37:01;12.60;85.30
21770;DHT22;11046;49.558;8.674;2023-04-25T11:40:06;12.50;85.40
21770;DHT22;11046;49.558;8.674;2023-04-25T11:43:07;12.50;85.30
21770;DHT22;11046;49.558;8.674;2023-04-25T11:46:09;12.40;85.60
21770;DHT22;11046;49.558;8.674;2023-04-25T11:49:10;12.60;86.10
21770;DHT22;11046;49.558;8.674;2023-04-25T11:52:11;12.60;86.10
21770;DHT22;11046;49.558;8.674;2023-04-25T11:55:19;12.70;85.90
21770;DHT22;11046;49.558;8.674;2023-04-25T11:58:20;12.90;86.00
21770;DHT22;11046;49.558;8.674;2023-04-25T12:01:38;13.30;85.80
21770;DHT22;11046;49.558;8.674;2023-04-25T12:04:40;13.60;85.30
21770;DHT22;11046;49.558;8.674;2023-04-25T12:07:41;13.70;84.50
21770;DHT22;11046;49.558;8.674;2023-04-25T12:10:44;13.70;84.60
21770;DHT22;11046;49.558;8.674;2023-04-25T12:13:45;13.80;83.70
21770;DHT22;11046;49.558;8.674;2023-04-25T12:16:47;13.70;83.80
21770;DHT22;11046;49.558;8.674;2023-04-25T12:19:48;13.50;83.40
21770;DHT22;11046;49.558;8.674;2023-04-25T12:22:50;13.30;83.90
21770;DHT22;11046;49.558;8.674;2023-04-25T12:25:50;13.40;84.30
21770;DHT22;11046;49.558;8.674;2023-04-25T12:28:51;13.40;83.70
21770;DHT22;11046;49.558;8.674;2023-04-25T12:31:54;13.60;84.10
21770;DHT22;11046;49.558;8.674;2023-04-25T12:34:55;13.90;83.80
21770;DHT22;11046;49.558;8.674;2023-04-25T12:37:56;14.10;83.30
21770;DHT22;11046;49.558;8.674;2023-04-25T12:40:57;14.30;83.10
21770;DHT22;11046;49.558;8.674;2023-04-25T12:43:58;14.40;83.10
21770;DHT22;11046;49.558;8.674;2023-04-25T12:46:59;14.60;82.30
21770;DHT22;11046;49.558;8.674;2023-04-25T12:50:00;14.50;81.20
21770;DHT22;11046;49.558;8.674;2023-04-25T12:53:00;14.30;81.40
21770;DHT22;11046;49.558;8.674;2023-04-25T12:56:01;14.20;81.70
21770;DHT22;11046;49.558;8.674;2023-04-25T12:59:02;14.20;81.70
21770;DHT22;11046;49.558;8.674;2023-04-25T13:02:03;14.30;82.00
21770;DHT22;11046;49.558;8.674;2023-04-25T13:05:04;14.40;82.30
21770;DHT22;11046;49.558;8.674;2023-04-25T13:08:04;14.70;82.40
21770;DHT22;11046;49.558;8.674;2023-04-25T13:11:05;15.00;82.40
21770;DHT22;11046;49.558;8.674;2023-04-25T13:14:06;15.10;81.80
21770;DHT22;11046;49.558;8.674;2023-04-25T13:17:07;15.00;81.40
21770;DHT22;11046;49.558;8.674;2023-04-25T13:20:08;14.90;81.00
21770;DHT22;11046;49.558;8.674;2023-04-25T13:23:09;14.80;80.70
21770;DHT22;11046;49.558;8.674;2023-04-25T13:26:10;14.80;80.20
21770;DHT22;11046;49.558;8.674;2023-04-25T13:29:11;14.50;79.10
21770;DHT22;11046;49.558;8.674;2023-04-25T13:32:11;14.50;79.60
21770;DHT22;11046;49.558;8.674;2023-04-25T13:35:13;14.50;79.70
21770;DHT22;11046;49.558;8.674;2023-04-25T13:38:14;14.70;79.60
21770;DHT22;11046;49.558;8.674;2023-04-25T13:41:14;14.80;79.30
21770;DHT22;11046;49.558;8.674;2023-04-25T13:44:18;14.90;79.00
21770;DHT22;11046;49.558;8.674;2023-04-25T13:47:19;15.10;79.60
21770;DHT22;11046;49.558;8.674;2023-04-25T13:50:20;15.30;78.60
21770;DHT22;11046;49.558;8.674;2023-04-25T13:53:20;15.30;79.10
21770;DHT22;11046;49.558;8.674;2023-04-25T13:56:21;15.50;77.90
21770;DHT22;11046;49.558;8.674;2023-04-25T13:59:22;15.40;77.50
21770;DHT22;11046;49.558;8.674;2023-04-25T14:02:23;15.40;76.90
21770;DHT22;11046;49.558;8.674;2023-04-25T14:05:23;15.40;76.30
21770;DHT22;11046;49.558;8.674;2023-04-25T14:08:24;15.30;76.00
21770;DHT22;11046;49.558;8.674;2023-04-25T14:11:25;15.30;75.90
21770;DHT22;11046;49.558;8.674;2023-04-25T14:14:26;15.20;75.30
21770;DHT22;11046;49.558;8.674;2023-04-25T14:17:26;15.10;75.20
21770;DHT22;11046;49.558;8.674;2023-04-25T14:20:27;14.90;75.00
21770;DHT22;11046;49.558;8.674;2023-04-25T14:23:28;14.60;74.80
21770;DHT22;11046;49.558;8.674;2023-04-25T14:26:29;14.50;75.10
21770;DHT22;11046;49.558;8.674;2023-04-25T14:29:29;14.30;74.80
21770;DHT22;11046;49.558;8.674;2023-04-25T14:32:30;14.10;74.40
21770;DHT22;11046;49.558;8.674;2023-04-25T14:35:32;14.00;74.50
21770;DHT22;11046;49.558;8.674;2023-04-25T14:38:33;13.80;74.60
21770;DHT22;11046;49.558;8.674;2023-04-25T14:41:33;13.70;74.20
21770;DHT22;11046;49.558;8.674;2023-04-25T14:44:34;13.50;74.90
21770;DHT22;11046;49.558;8.674;2023-04-25T14:47:35;13.40;75.20
21770;DHT22;11046;49.558;8.674;2023-04-25T14:50:36;13.50;75.00
21770;DHT22;11046;49.558;8.674;2023-04-25T14:53:37;13.50;74.90
21770;DHT22;11046;49.558;8.674;2023-04-25T14:56:37;13.60;74.80
21770;DHT22;11046;49.558;8.674;2023-04-25T14:59:38;13.50;74.50
21770;DHT22;11046;49.558;8.674;2023-04-25T15:02:39;13.50;74.60
21770;DHT22;11046;49.558;8.674;2023-04-25T15:05:40;13.30;74.20
21770;DHT22;11046;49.558;8.674;2023-04-25T15:08:40;13.20;74.20
21770;DHT22;11046;49.558;8.674;2023-04-25T15:11:41;13.30;74.10
21770;DHT22;11046;49.558;8.674;2023-04-25T15:14:42;13.30;74.20
21770;DHT22;11046;49.558;8.674;2023-04-25T15:17:43;13.30;74.10
21770;DHT22;11046;49.558;8.674;2023-04-25T15:20:44;13.10;74.60
21770;DHT22;11046;49.558;8.674;2023-04-25T15:23:44;13.10;74.60
21770;DHT22;11046;49.558;8.674;2023-04-25T15:26:45;13.10;74.40
21770;DHT22;11046;49.558;8.674;2023-04-25T15:29:46;13.10;74.20
21770;DHT22;11046;49.558;8.674;2023-04-25T15:32:47;13.10;74.20
21770;DHT22;11046;49.558;8.674;2023-04-25T15:35:47;13.10;73.90
21770;DHT22;11046;49.558;8.674;2023-04-25T15:38:48;13.20;74.00
21770;DHT22;11046;49.558;8.674;2023-04-25T15:41:48;13.20;73.90
21770;DHT22;11046;49.558;8.674;2023-04-25T15:44:49;13.20;73.20
21770;DHT22;11046;49.558;8.674;2023-04-25T15:47:51;12.90;73.00
21770;DHT22;11046;49.558;8.674;2023-04-25T15:50:54;12.90;73.30
21770;DHT22;11046;49.558;8.674;2023-04-25T15:53:55;12.80;72.80
21770;DHT22;11046;49.558;8.674;2023-04-25T15:56:56;12.70;72.70
21770;DHT22;11046;49.558;8.674;2023-04-25T15:59:56;12.60;72.60
21770;DHT22;11046;49.558;8.674;2023-04-25T16:02:57;12.60;72.70
21770;DHT22;11046;49.558;8.674;2023-04-25T16:05:58;12.60;72.60
21770;DHT22;11046;49.558;8.674;2023-04-25T16:08:58;12.50;72.60
21770;DHT22;11046;49.558;8.674;2023-04-25T16:11:59;12.60;72.30
21770;DHT22;11046;49.558;8.674;2023-04-25T16:15:00;12.60;72.20
21770;DHT22;11046;49.558;8.674;2023-04-25T16:18:01;12.60;72.10
21770;DHT22;11046;49.558;8.674;2023-04-25T16:21:02;12.70;71.60
21770;DHT22;11046;49.558;8.674;2023-04-25T16:24:03;12.60;71.40
21770;DHT22;11046;49.558;8.674;2023-04-25T16:27:04;12.60;71.60
21770;DHT22;11046;49.558;8.674;2023-04-25T16:30:06;12.50;71.60
21770;DHT22;11046;49.558;8.674;2023-04-25T16:33:07;12.60;72.10
21770;DHT22;11046;49.558;8.674;2023-04-25T16:36:08;12.40;71.50
21770;DHT22;11046;49.558;8.674;2023-04-25T16:39:09;12.40;71.60
21770;DHT22;11046;49.558;8.674;2023-04-25T16:42:09;12.40;71.60
21770;DHT22;11046;49.558;8.674;2023-04-25T16:45:12;12.30;71.60
21770;DHT22;11046;49.558;8.674;2023-04-25T16:48:12;12.30;71.80
21770;DHT22;11046;49.558;8.674;2023-04-25T16:51:14;12.10;71.50
21770;DHT22;11046;49.558;8.674;2023-04-25T16:54:14;12.00;71.90
21770;DHT22;11046;49.558;8.674;2023-04-25T16:57:15;12.10;71.90
21770;DHT22;11046;49.558;8.674;2023-04-25T17:00:16;12.10;72.10
21770;DHT22;11046;49.558;8.674;2023-04-25T17:03:17;12.10;71.50
21770;DHT22;11046;49.558;8.674;2023-04-25T17:06:18;12.00;71.30
21770;DHT22;11046;49.558;8.674;2023-04-25T17:09:18;12.00;71.50
21770;DHT22;11046;49.558;8.674;2023-04-25T17:12:19;12.00;71.60
21770;DHT22;11046;49.558;8.674;2023-04-25T17:15:20;11.80;71.50
21770;DHT22;11046;49.558;8.674;2023-04-25T17:18:21;11.80;71.50
21770;DHT22;11046;49.558;8.674;2023-04-25T17:21:22;11.70;71.40
21770;DHT22;11046;49.558;8.674;2023-04-25T17:24:22;11.60;71.50
21770;DHT22;11046;49.558;8.674;2023-04-25T17:27:23;11.50;71.50
21770;DHT22;11046;49.558;8.674;2023-04-25T17:30:24;11.40;71.50
21770;DHT22;11046;49.558;8.674;2023-04-25T17:33:24;11.40;71.60
21770;DHT22;11046;49.558;8.674;2023-04-25T17:36:26;11.30;71.40
21770;DHT22;11046;49.558;8.674;2023-04-25T17:39:27;11.40;71.50
21770;DHT22;11046;49.558;8.674;2023-04-25T17:42:27;11.40;71.40
21770;DHT22;11046;49.558;8.674;2023-04-25T17:45:28;11.30;71.40
21770;DHT22;11046;49.558;8.674;2023-04-25T17:48:33;11.30;71.50
21770;DHT22;11046;49.558;8.674;2023-04-25T17:51:34;11.20;71.60
21770;DHT22;11046;49.558;8.674;2023-04-25T17:54:35;11.20;71.80
21770;DHT22;11046;49.558;8.674;2023-04-25T17:57:35;11.20;71.80
21770;DHT22;11046;49.558;8.674;2023-04-25T18:00:39;11.10;71.80
21770;DHT22;11046;49.558;8.674;2023-04-25T18:03:40;11.20;71.50
21770;DHT22;11046;49.558;8.674;2023-04-25T18:06:44;11.20;71.40
21770;DHT22;11046;49.558;8.674;2023-04-25T18:09:44;11.10;71.70
21770;DHT22;11046;49.558;8.674;2023-04-25T18:12:45;11.00;71.80
21770;DHT22;11046;49.558;8.674;2023-04-25T18:15:46;10.90;72.10
21770;DHT22;11046;49.558;8.674;2023-04-25T18:18:47;10.90;72.30
21770;DHT22;11046;49.558;8.674;2023-04-25T18:21:53;10.80;72.50
21770;DHT22;11046;49.558;8.674;2023-04-25T18:24:54;10.70;73.00
21770;DHT22;11046;49.558;8.674;2023-04-25T18:27:54;10.70;73.30
21770;DHT22;11046;49.558;8.674;2023-04-25T18:30:55;10.60;73.60
21770;DHT22;11046;49.558;8.674;2023-04-25T18:33:57;10.50;74.20
21770;DHT22;11046;49.558;8.674;2023-04-25T18:36:57;10.60;74.40
21770;DHT22;11046;49.558;8.674;2023-04-25T18:39:58;10.50;74.60
21770;DHT22;11046;49.558;8.674;2023-04-25T18:42:59;10.40;74.90
21770;DHT22;11046;49.558;8.674;2023-04-25T18:45:59;10.20;75.20
21770;DHT22;11046;49.558;8.674;2023-04-25T18:49:00;9.90;75.90
21770;DHT22;11046;49.558;8.674;2023-04-25T18:52:01;9.90;76.70
21770;DHT22;11046;49.558;8.674;2023-04-25T18:55:03;9.80;77.00
21770;DHT22;11046;49.558;8.674;2023-04-25T18:58:04;9.70;77.50
21770;DHT22;11046;49.558;8.674;2023-04-25T19:01:06;9.70;77.60
21770;DHT22;11046;49.558;8.674;2023-04-25T19:04:07;9.70;77.60
21770;DHT22;11046;49.558;8.674;2023-04-25T19:07:08;9.70;78.00
21770;DHT22;11046;49.558;8.674;2023-04-25T19:10:09;9.60;78.10
21770;DHT22;11046;49.558;8.674;2023-04-25T19:13:10;9.60;78.30
21770;DHT22;11046;49.558;8.674;2023-04-25T19:16:11;9.50;78.40
21770;DHT22;11046;49.558;8.674;2023-04-25T19:19:12;9.50;78.80
21770;DHT22;11046;49.558;8.674;2023-04-25T19:22:13;9.50;78.80
21770;DHT22;11046;49.558;8.674;2023-04-25T19:25:13;9.50;79.10
21770;DHT22;11046;49.558;8.674;2023-04-25T19:28:14;9.40;79.40
21770;DHT22;11046;49.558;8.674;2023-04-25T19:31:16;9.30;79.70